createdAt,value
2022-12-23T00:00:24.947Z,9.08
2022-12-23T00:02:51.465Z,9.00
2022-12-23T00:05:17.966Z,8.95
2022-12-23T00:07:44.884Z,8.97
2022-12-23T00:10:11.234Z,9.06
2022-12-23T00:12:56.504Z,9.07
2022-12-23T00:15:22.820Z,9.02
2022-12-23T00:17:49.123Z,9.07
2022-12-23T00:20:15.423Z,8.85
2022-12-23T00:23:00.162Z,8.47
2022-12-23T00:25:41.619Z,8.02
2022-12-23T00:28:14.153Z,8.14
2022-12-23T00:30:49.639Z,8.52
2022-12-23T00:33:16.400Z,8.67
2022-12-23T00:35:43.336Z,8.94
2022-12-23T00:38:09.642Z,8.96
2022-12-23T00:40:54.591Z,9.17
2022-12-23T00:43:20.875Z,9.26
2022-12-23T00:45:47.232Z,9.35
2022-12-23T00:48:32.332Z,9.51
2022-12-23T00:50:58.614Z,9.45
2022-12-23T00:53:24.895Z,9.44
2022-12-23T00:55:51.232Z,9.45
2022-12-23T00:58:17.874Z,9.42
2022-12-23T01:01:02.971Z,9.49
2022-12-23T01:03:47.623Z,9.14
2022-12-23T01:06:13.900Z,8.77
2022-12-23T01:08:40.249Z,8.82
2022-12-23T01:11:06.953Z,8.68
2022-12-23T01:13:33.279Z,8.82
2022-12-23T01:16:00.512Z,8.92
2022-12-23T01:18:26.803Z,9.09
2022-12-23T01:20:53.085Z,9.23
2022-12-23T01:23:19.363Z,9.09
2022-12-23T01:25:45.657Z,9.27
2022-12-23T01:28:11.950Z,9.33
2022-12-23T01:30:38.272Z,9.09
2022-12-23T01:33:04.734Z,8.57
2022-12-23T01:35:31.028Z,7.92
2022-12-23T01:37:57.340Z,7.81
2022-12-23T01:40:23.609Z,8.36
2022-12-23T01:42:50.013Z,8.75
2022-12-23T01:45:20.024Z,8.96
2022-12-23T01:48:12.392Z,8.92
2022-12-23T01:50:48.533Z,8.69
2022-12-23T01:53:19.099Z,8.51
2022-12-23T01:55:49.655Z,8.70
2022-12-23T01:58:24.867Z,8.61
2022-12-23T02:01:10.033Z,8.89
2022-12-23T02:03:42.164Z,9.06
2022-12-23T02:06:35.948Z,9.20
2022-12-23T02:09:17.407Z,9.10
2022-12-23T02:11:47.928Z,9.05
2022-12-23T02:14:48.523Z,9.17
2022-12-23T02:17:17.194Z,9.12
2022-12-23T02:19:46.556Z,8.85
2022-12-23T02:22:12.793Z,8.93
2022-12-23T02:24:48.913Z,9.13
2022-12-23T02:27:16.323Z,9.19
2022-12-23T02:29:48.661Z,8.91
2022-12-23T02:32:16.061Z,8.89
2022-12-23T02:34:48.427Z,9.10
2022-12-23T02:37:47.311Z,9.23
2022-12-23T02:40:22.518Z,9.33
2022-12-23T02:43:05.192Z,9.40
2022-12-23T02:45:36.655Z,9.42
2022-12-23T02:48:12.281Z,9.34
2022-12-23T02:50:38.572Z,9.44
2022-12-23T02:53:07.278Z,9.34
2022-12-23T02:55:34.456Z,9.27
2022-12-23T02:58:01.060Z,9.02
2022-12-23T03:00:27.346Z,9.04
2022-12-23T03:02:53.861Z,9.20
2022-12-23T03:05:23.922Z,9.25
2022-12-23T03:07:50.206Z,9.22
2022-12-23T03:10:22.557Z,9.19
2022-12-23T03:12:57.986Z,9.26
2022-12-23T03:15:43.296Z,9.40
2022-12-23T03:18:09.622Z,9.26
2022-12-23T03:20:35.905Z,9.09
2022-12-23T03:23:09.682Z,9.01
2022-12-23T03:25:37.615Z,9.26
2022-12-23T03:28:09.631Z,9.35
2022-12-23T03:30:35.918Z,9.30
2022-12-23T03:33:12.274Z,9.26
2022-12-23T03:35:39.972Z,9.01
2022-12-23T03:38:06.242Z,9.13
2022-12-23T03:40:34.787Z,8.93
2022-12-23T03:43:02.093Z,8.81
2022-12-23T03:45:39.178Z,8.36
2022-12-23T03:48:07.723Z,8.27
2022-12-23T03:50:34.009Z,8.17
2022-12-23T03:53:00.246Z,8.22
2022-12-23T03:55:28.031Z,8.33
2022-12-23T03:58:13.153Z,8.34
2022-12-23T04:00:41.500Z,8.34
2022-12-23T04:03:14.030Z,8.48
2022-12-23T04:05:40.378Z,8.46
2022-12-23T04:08:26.351Z,8.73
2022-12-23T04:10:52.647Z,8.77
2022-12-23T04:13:18.921Z,9.05
2022-12-23T04:15:45.341Z,9.21
2022-12-23T04:18:11.649Z,9.22
2022-12-23T04:20:37.955Z,9.33
2022-12-23T04:23:04.238Z,9.32
2022-12-23T04:25:30.533Z,9.24
2022-12-23T04:27:56.933Z,8.66
2022-12-23T04:30:26.764Z,8.75
2022-12-23T04:32:57.763Z,9.02
2022-12-23T04:35:24.061Z,9.20
2022-12-23T04:37:50.352Z,9.30
2022-12-23T04:40:16.635Z,9.41
2022-12-23T04:42:42.916Z,9.53
2022-12-23T04:45:09.687Z,9.54
2022-12-23T04:47:36.001Z,9.45
2022-12-23T04:50:02.258Z,9.37
2022-12-23T04:52:28.538Z,9.48
2022-12-23T04:54:54.902Z,9.52
2022-12-23T04:57:21.188Z,9.53
2022-12-23T04:59:47.455Z,9.24
2022-12-23T05:02:13.957Z,9.38
2022-12-23T05:04:40.457Z,9.46
2022-12-23T05:07:06.778Z,9.58
2022-12-23T05:09:33.119Z,9.58
2022-12-23T05:11:59.727Z,9.57
2022-12-23T05:14:26.000Z,9.42
2022-12-23T05:16:52.346Z,9.14
2022-12-23T05:19:18.696Z,8.77
2022-12-23T05:21:44.987Z,8.72
2022-12-23T05:24:11.295Z,9.08
2022-12-23T05:26:37.592Z,9.20
2022-12-23T05:29:03.967Z,9.23
2022-12-23T05:31:30.285Z,9.26
2022-12-23T05:34:00.853Z,9.26
2022-12-23T05:36:30.521Z,9.30
2022-12-23T05:38:57.461Z,9.41
2022-12-23T05:41:23.742Z,9.40
2022-12-23T05:43:50.044Z,9.40
2022-12-23T05:46:19.884Z,9.49
2022-12-23T05:48:49.018Z,9.55
2022-12-23T05:51:15.330Z,9.58
2022-12-23T05:53:41.611Z,9.65
2022-12-23T05:56:07.999Z,9.63
2022-12-23T05:58:34.277Z,9.60
2022-12-23T06:01:01.539Z,9.45
2022-12-23T06:03:28.038Z,9.45
2022-12-23T06:05:54.564Z,9.49
2022-12-23T06:08:20.844Z,9.37
2022-12-23T06:10:47.187Z,9.35
2022-12-23T06:13:13.469Z,9.11
2022-12-23T06:15:39.806Z,9.01
2022-12-23T06:18:06.096Z,9.12
2022-12-23T06:20:32.379Z,9.21
2022-12-23T06:22:58.669Z,9.02
2022-12-23T06:25:24.966Z,9.02
2022-12-23T06:27:51.254Z,9.24
2022-12-23T06:30:17.579Z,9.17
2022-12-23T06:32:43.882Z,8.94
2022-12-23T06:35:10.166Z,9.06
2022-12-23T06:37:36.436Z,8.68
2022-12-23T06:40:02.731Z,8.64
2022-12-23T06:42:29.037Z,8.96
2022-12-23T06:44:55.330Z,9.14
2022-12-23T06:47:21.611Z,9.21
2022-12-23T06:49:47.958Z,9.45
2022-12-23T06:52:14.257Z,9.40
2022-12-23T06:54:40.559Z,9.49
2022-12-23T06:57:06.871Z,9.59
2022-12-23T06:59:33.197Z,9.50
2022-12-23T07:01:59.656Z,9.57
2022-12-23T07:04:26.092Z,9.60
2022-12-23T07:06:52.379Z,9.61
2022-12-23T07:09:18.665Z,9.76
2022-12-23T07:11:44.937Z,9.74
2022-12-23T07:14:11.608Z,9.66
2022-12-23T07:16:37.933Z,9.65
2022-12-23T07:19:04.253Z,9.65
2022-12-23T07:21:30.579Z,9.66
2022-12-23T07:23:56.899Z,9.74
2022-12-23T07:26:23.191Z,9.73
2022-12-23T07:28:49.546Z,9.60
2022-12-23T07:31:16.013Z,9.29
2022-12-23T07:33:42.480Z,9.15
2022-12-23T07:36:08.954Z,9.39
2022-12-23T07:38:35.242Z,9.25
2022-12-23T07:41:01.525Z,9.06
2022-12-23T07:43:27.840Z,8.96
2022-12-23T07:45:59.516Z,9.17
2022-12-23T07:48:26.789Z,9.47
2022-12-23T07:50:53.084Z,9.53
2022-12-23T07:53:19.360Z,9.31
2022-12-23T07:55:45.652Z,9.30
2022-12-23T07:58:11.963Z,9.14
2022-12-23T08:00:38.234Z,9.05
2022-12-23T08:03:04.619Z,9.25
2022-12-23T08:05:31.435Z,9.50
2022-12-23T08:07:57.798Z,9.62
2022-12-23T08:10:24.075Z,9.64
2022-12-23T08:12:50.366Z,9.68
2022-12-23T08:15:16.774Z,9.48
2022-12-23T08:17:43.045Z,9.32
2022-12-23T08:20:09.552Z,9.16
2022-12-23T08:22:35.828Z,8.71
2022-12-23T08:25:02.199Z,8.57
2022-12-23T08:27:28.473Z,8.71
2022-12-23T08:29:54.749Z,8.92
2022-12-23T08:32:21.065Z,8.92
2022-12-23T08:34:47.413Z,9.06
2022-12-23T08:37:13.896Z,9.15
2022-12-23T08:39:40.217Z,9.26
2022-12-23T08:42:06.509Z,9.30
2022-12-23T08:44:32.837Z,9.40
2022-12-23T08:46:59.114Z,9.60
2022-12-23T08:49:25.418Z,9.81
2022-12-23T08:51:51.753Z,9.64
2022-12-23T08:54:20.208Z,9.27
2022-12-23T08:56:46.516Z,9.01
2022-12-23T08:59:18.607Z,9.01
2022-12-23T09:01:46.082Z,9.20
2022-12-23T09:04:12.490Z,9.16
2022-12-23T09:06:40.777Z,9.16
2022-12-23T09:09:07.406Z,8.96
2022-12-23T09:11:33.819Z,8.79
2022-12-23T09:14:00.234Z,8.92
2022-12-23T09:16:26.743Z,9.17
2022-12-23T09:18:53.081Z,9.47
2022-12-23T09:21:20.035Z,9.46
2022-12-23T09:23:46.373Z,9.43
2022-12-23T09:26:16.919Z,9.33
2022-12-23T09:28:43.194Z,9.38
2022-12-23T09:31:09.912Z,9.45
2022-12-23T09:33:36.338Z,9.55
2022-12-23T09:36:02.689Z,9.65
2022-12-23T09:38:28.967Z,9.66
2022-12-23T09:41:01.206Z,9.77
2022-12-23T09:43:31.238Z,9.88
2022-12-23T09:46:13.789Z,9.88
2022-12-23T09:48:46.019Z,9.91
2022-12-23T09:51:12.307Z,9.94
2022-12-23T09:53:44.710Z,10.05
2022-12-23T09:56:16.296Z,10.07
2022-12-23T09:58:42.528Z,10.17
2022-12-23T10:01:27.876Z,10.02
2022-12-23T10:04:02.363Z,10.01
2022-12-23T10:06:28.941Z,10.04
2022-12-23T10:08:58.127Z,9.91
2022-12-23T10:11:25.501Z,10.03
2022-12-23T10:13:52.993Z,10.13
2022-12-23T10:16:20.024Z,10.28
2022-12-23T10:19:00.891Z,10.32
2022-12-23T10:21:46.890Z,10.46
2022-12-23T10:24:27.594Z,10.49
2022-12-23T10:26:54.729Z,10.29
2022-12-23T10:29:24.654Z,10.17
2022-12-23T10:32:05.840Z,10.22
2022-12-23T10:34:47.253Z,10.20
2022-12-23T10:37:23.231Z,10.21
2022-12-23T10:40:08.316Z,10.25
2022-12-23T10:42:36.302Z,10.36
2022-12-23T10:45:09.376Z,10.25
2022-12-23T10:47:42.475Z,10.15
2022-12-23T10:50:15.272Z,10.31
2022-12-23T10:52:42.276Z,10.41
2022-12-23T10:55:14.496Z,9.79
2022-12-23T10:57:40.792Z,9.47
2022-12-23T11:00:15.834Z,9.57
2022-12-23T11:02:45.164Z,9.92
2022-12-23T11:05:12.564Z,9.94
2022-12-23T11:07:46.639Z,9.99
2022-12-23T11:10:15.780Z,10.11
2022-12-23T11:12:43.027Z,10.26
2022-12-23T11:15:28.129Z,10.29
2022-12-23T11:17:58.720Z,10.05
2022-12-23T11:20:25.020Z,9.98
2022-12-23T11:22:59.788Z,9.95
2022-12-23T11:25:30.176Z,9.52
2022-12-23T11:27:59.491Z,9.12
2022-12-23T11:30:25.846Z,9.38
2022-12-23T11:32:52.492Z,9.73
2022-12-23T11:35:26.271Z,9.97
2022-12-23T11:37:52.576Z,10.05
2022-12-23T11:40:32.612Z,10.06
2022-12-23T11:42:59.600Z,10.15
2022-12-23T11:45:27.176Z,10.35
2022-12-23T11:47:53.640Z,10.36
2022-12-23T11:50:22.936Z,10.36
2022-12-23T11:52:49.624Z,10.56
2022-12-23T11:55:22.877Z,10.59
2022-12-23T11:57:49.299Z,10.68
2022-12-23T12:00:18.807Z,10.60
2022-12-23T12:02:45.208Z,10.58
2022-12-23T12:05:22.687Z,10.66
2022-12-23T12:07:48.998Z,10.63
2022-12-23T12:10:17.274Z,10.61
2022-12-23T12:12:43.548Z,10.56
2022-12-23T12:15:17.626Z,10.48
2022-12-23T12:17:44.411Z,10.56
2022-12-23T12:20:12.440Z,10.47
2022-12-23T12:22:39.890Z,10.21
2022-12-23T12:25:11.719Z,10.06
2022-12-23T12:27:38.169Z,10.10
2022-12-23T12:30:08.679Z,10.19
2022-12-23T12:32:38.483Z,10.43
2022-12-23T12:35:31.519Z,10.49
2022-12-23T12:37:59.973Z,10.53
2022-12-23T12:40:29.295Z,10.50
2022-12-23T12:42:59.898Z,10.12
2022-12-23T12:45:34.423Z,9.57
2022-12-23T12:48:08.699Z,9.49
2022-12-23T12:50:44.170Z,9.57
2022-12-23T12:53:12.021Z,9.99
2022-12-23T12:55:40.039Z,10.28
2022-12-23T12:58:08.575Z,10.40
2022-12-23T13:00:38.656Z,10.43
2022-12-23T13:03:23.779Z,10.44
2022-12-23T13:06:08.796Z,10.37
2022-12-23T13:08:39.399Z,10.61
2022-12-23T13:11:06.144Z,10.82
2022-12-23T13:13:35.564Z,10.87
2022-12-23T13:16:04.059Z,10.97
2022-12-23T13:18:33.365Z,11.04
2022-12-23T13:21:08.091Z,11.12
2022-12-23T13:23:44.781Z,11.04
2022-12-23T13:26:14.227Z,11.03
2022-12-23T13:28:45.916Z,10.97
2022-12-23T13:31:21.466Z,10.86
2022-12-23T13:33:49.474Z,10.81
2022-12-23T13:36:34.083Z,10.88
2022-12-23T13:39:13.595Z,10.95
2022-12-23T13:41:47.015Z,10.96
2022-12-23T13:44:14.973Z,10.84
2022-12-23T13:46:59.632Z,10.73
2022-12-23T13:49:42.122Z,10.69
2022-12-23T13:52:12.272Z,10.80
2022-12-23T13:54:53.833Z,10.92
2022-12-23T13:57:31.774Z,10.97
2022-12-23T14:00:04.991Z,11.03
2022-12-23T14:02:35.541Z,11.13
2022-12-23T14:05:01.912Z,11.20
2022-12-23T14:07:28.211Z,11.27
2022-12-23T14:09:55.115Z,11.14
2022-12-23T14:12:21.421Z,11.14
2022-12-23T14:15:06.315Z,10.81
2022-12-23T14:17:39.093Z,10.42
2022-12-23T14:20:24.062Z,10.42
2022-12-23T14:22:56.475Z,10.73
2022-12-23T14:25:29.359Z,10.87
2022-12-23T14:27:58.452Z,11.00
2022-12-23T14:30:33.085Z,11.07
2022-12-23T14:33:03.233Z,10.96
2022-12-23T14:35:38.487Z,10.71
2022-12-23T14:38:08.399Z,10.73
2022-12-23T14:40:37.699Z,10.75
2022-12-23T14:43:22.723Z,10.92
2022-12-23T14:45:49.606Z,11.03
2022-12-23T14:48:34.341Z,11.13
2022-12-23T14:51:01.436Z,11.18
2022-12-23T14:53:28.256Z,11.22
2022-12-23T14:56:09.793Z,11.19
2022-12-23T14:58:46.610Z,11.27
2022-12-23T15:01:33.263Z,11.19
2022-12-23T15:04:01.774Z,11.20
2022-12-23T15:06:45.096Z,11.18
2022-12-23T15:09:21.443Z,11.12
2022-12-23T15:11:47.776Z,11.02
2022-12-23T15:14:16.885Z,11.08
2022-12-23T15:16:45.026Z,11.22
2022-12-23T15:19:17.526Z,11.16
2022-12-23T15:21:46.899Z,11.05
2022-12-23T15:24:19.943Z,11.16
2022-12-23T15:27:03.629Z,11.18
2022-12-23T15:29:36.440Z,11.20
2022-12-23T15:32:03.165Z,11.12
2022-12-23T15:34:30.480Z,11.00
2022-12-23T15:36:56.875Z,10.93
2022-12-23T15:39:32.985Z,11.05
2022-12-23T15:41:59.414Z,11.00
2022-12-23T15:44:26.673Z,10.75
2022-12-23T15:46:53.103Z,10.71
2022-12-23T15:49:19.769Z,10.83
2022-12-23T15:52:12.459Z,10.94
2022-12-23T15:54:40.471Z,11.13
2022-12-23T15:57:06.756Z,11.14
2022-12-23T15:59:33.725Z,10.73
2022-12-23T16:02:32.145Z,10.86
2022-12-23T16:04:56.373Z,11.02
2022-12-23T16:07:23.523Z,11.05
2022-12-23T16:09:49.798Z,10.96
2022-12-23T16:12:16.004Z,10.68
2022-12-23T16:14:42.349Z,10.79
2022-12-23T16:17:08.568Z,10.79
2022-12-23T16:19:40.568Z,10.84
2022-12-23T16:22:10.733Z,10.89
2022-12-23T16:24:36.995Z,10.92
2022-12-23T16:27:03.291Z,10.93
2022-12-23T16:29:33.326Z,11.05
2022-12-23T16:32:02.023Z,10.96
2022-12-23T16:34:30.163Z,10.80
2022-12-23T16:36:56.476Z,10.90
2022-12-23T16:39:22.796Z,11.07
2022-12-23T16:41:49.256Z,11.11
2022-12-23T16:44:15.691Z,11.13
2022-12-23T16:46:45.458Z,11.13
2022-12-23T16:49:18.730Z,11.08
2022-12-23T16:51:45.023Z,11.04
2022-12-23T16:54:14.867Z,11.08
2022-12-23T16:56:41.415Z,11.11
2022-12-23T16:59:07.861Z,10.81
2022-12-23T17:01:35.351Z,10.59
2022-12-23T17:04:01.624Z,10.53
2022-12-23T17:06:27.927Z,10.79
2022-12-23T17:08:54.184Z,10.96
2022-12-23T17:11:24.412Z,10.99
2022-12-23T17:13:50.692Z,11.03
2022-12-23T17:16:19.894Z,11.08
2022-12-23T17:18:46.948Z,11.12
2022-12-23T17:21:21.597Z,11.00
2022-12-23T17:23:47.895Z,10.83
2022-12-23T17:26:14.730Z,10.76
2022-12-23T17:28:41.009Z,10.93
2022-12-23T17:31:13.988Z,10.90
2022-12-23T17:33:41.803Z,10.64
2022-12-23T17:36:08.960Z,10.17
2022-12-23T17:38:35.275Z,10.48
2022-12-23T17:41:01.582Z,10.67
2022-12-23T17:43:27.951Z,10.82
2022-12-23T17:45:54.291Z,10.63
2022-12-23T17:48:24.141Z,10.36
2022-12-23T17:50:52.906Z,10.26
2022-12-23T17:53:19.288Z,10.16
2022-12-23T17:55:45.592Z,10.24
2022-12-23T17:58:11.975Z,10.49
2022-12-23T18:00:38.282Z,10.72
2022-12-23T18:03:05.382Z,10.81
2022-12-23T18:05:32.597Z,10.85
2022-12-23T18:07:59.396Z,10.83
2022-12-23T18:10:26.845Z,10.90
2022-12-23T18:12:53.787Z,10.93
2022-12-23T18:15:24.141Z,10.96
2022-12-23T18:17:50.538Z,10.97
2022-12-23T18:20:20.700Z,10.94
2022-12-23T18:22:47.421Z,10.99
2022-12-23T18:25:14.775Z,11.04
2022-12-23T18:27:41.159Z,11.06
2022-12-23T18:30:07.692Z,11.14
2022-12-23T18:32:33.970Z,11.16
2022-12-23T18:35:00.296Z,11.21
2022-12-23T18:37:26.601Z,11.26
2022-12-23T18:39:52.898Z,11.17
2022-12-23T18:42:19.474Z,11.14
2022-12-23T18:44:46.419Z,11.13
2022-12-23T18:47:12.747Z,10.77
2022-12-23T18:49:39.032Z,10.59
2022-12-23T18:52:07.276Z,10.37
2022-12-23T18:54:33.778Z,10.40
2022-12-23T18:57:00.812Z,10.76
2022-12-23T18:59:29.960Z,10.86
2022-12-23T19:01:56.703Z,10.90
2022-12-23T19:04:23.060Z,10.90
2022-12-23T19:06:49.364Z,10.78
2022-12-23T19:09:16.548Z,10.71
2022-12-23T19:11:42.897Z,10.72
2022-12-23T19:14:09.879Z,10.76
2022-12-23T19:16:36.257Z,10.84
2022-12-23T19:19:02.554Z,11.07
2022-12-23T19:21:28.913Z,11.06
2022-12-23T19:23:55.208Z,11.11
2022-12-23T19:26:21.483Z,11.14
2022-12-23T19:28:48.519Z,11.20
2022-12-23T19:31:15.141Z,11.16
2022-12-23T19:33:42.123Z,11.19
2022-12-23T19:36:09.711Z,11.24
2022-12-23T19:38:36.042Z,11.17
2022-12-23T19:41:02.314Z,11.19
2022-12-23T19:43:28.591Z,11.17
2022-12-23T19:45:58.701Z,11.08
2022-12-23T19:48:25.055Z,11.03
2022-12-23T19:50:58.150Z,10.93
2022-12-23T19:53:24.620Z,10.84
2022-12-23T19:55:59.179Z,11.01
2022-12-23T19:58:25.747Z,11.03
2022-12-23T20:00:52.060Z,10.98
2022-12-23T20:03:19.346Z,10.55
2022-12-23T20:05:49.621Z,10.22
2022-12-23T20:08:16.510Z,10.48
2022-12-23T20:10:43.196Z,10.57
2022-12-23T20:13:09.540Z,10.32
2022-12-23T20:15:35.872Z,10.71
2022-12-23T20:18:02.227Z,10.79
2022-12-23T20:20:28.540Z,10.88
2022-12-23T20:22:54.814Z,10.97
2022-12-23T20:25:21.089Z,10.96
2022-12-23T20:27:47.355Z,10.97
2022-12-23T20:30:13.644Z,11.00
2022-12-23T20:32:39.942Z,11.07
2022-12-23T20:35:06.432Z,11.13
2022-12-23T20:37:32.735Z,11.08
2022-12-23T20:39:59.032Z,11.00
2022-12-23T20:42:27.481Z,10.95
2022-12-23T20:44:53.973Z,11.00
2022-12-23T20:47:20.291Z,10.89
2022-12-23T20:49:46.573Z,11.02
2022-12-23T20:52:12.843Z,10.99
2022-12-23T20:54:39.141Z,10.79
2022-12-23T20:57:05.448Z,10.13
2022-12-23T20:59:31.747Z,9.81
2022-12-23T21:01:59.095Z,9.37
2022-12-23T21:04:25.673Z,9.81
2022-12-23T21:06:51.957Z,10.18
2022-12-23T21:09:18.283Z,10.36
2022-12-23T21:11:45.032Z,10.58
2022-12-23T21:14:11.365Z,10.71
2022-12-23T21:16:37.807Z,10.86
2022-12-23T21:19:04.496Z,10.97
2022-12-23T21:21:31.728Z,10.97
2022-12-23T21:23:59.235Z,10.94
2022-12-23T21:26:26.288Z,11.00
2022-12-23T21:28:53.032Z,11.09
2022-12-23T21:31:20.132Z,11.07
2022-12-23T21:33:46.874Z,11.12
2022-12-23T21:36:19.828Z,11.24
2022-12-23T21:38:46.838Z,11.25
2022-12-23T21:41:14.309Z,11.26
2022-12-23T21:43:40.601Z,10.86
2022-12-23T21:46:07.974Z,11.02
2022-12-23T21:48:34.740Z,11.14
2022-12-23T21:51:05.057Z,11.21
2022-12-23T21:53:31.929Z,10.91
2022-12-23T21:56:04.500Z,10.29
2022-12-23T21:58:30.909Z,9.75
2022-12-23T22:00:57.263Z,9.33
2022-12-23T22:03:23.660Z,9.04
2022-12-23T22:05:49.957Z,8.89
2022-12-23T22:08:16.244Z,9.17
2022-12-23T22:10:42.698Z,9.40
2022-12-23T22:13:08.978Z,9.40
2022-12-23T22:15:39.510Z,9.52
2022-12-23T22:18:05.803Z,9.90
2022-12-23T22:20:32.080Z,10.26
2022-12-23T22:22:58.368Z,10.57
2022-12-23T22:25:24.727Z,10.78
2022-12-23T22:27:51.061Z,10.92
2022-12-23T22:30:17.339Z,10.88
2022-12-23T22:32:43.651Z,10.77
2022-12-23T22:35:10.027Z,10.78
2022-12-23T22:37:36.339Z,10.90
2022-12-23T22:40:02.885Z,10.88
2022-12-23T22:42:29.183Z,10.85
2022-12-23T22:44:55.478Z,10.89
2022-12-23T22:47:21.831Z,10.96
2022-12-23T22:49:48.111Z,11.01
2022-12-23T22:52:14.979Z,11.14
2022-12-23T22:54:41.299Z,10.92
2022-12-23T22:57:07.636Z,10.82
2022-12-23T22:59:33.952Z,10.31
2022-12-23T23:02:00.324Z,9.72
2022-12-23T23:04:26.687Z,9.71
2022-12-23T23:06:53.010Z,9.72
2022-12-23T23:09:19.529Z,10.13
2022-12-23T23:11:45.899Z,10.52
2022-12-23T23:14:12.220Z,10.73
2022-12-23T23:16:38.673Z,10.91
2022-12-23T23:19:05.027Z,11.01
2022-12-23T23:21:31.478Z,11.04
2022-12-23T23:23:57.781Z,11.07
2022-12-23T23:26:27.395Z,11.10
2022-12-23T23:28:54.285Z,11.06
2022-12-23T23:34:07.068Z,11.14
2022-12-23T23:36:33.406Z,11.17
2022-12-23T23:38:59.784Z,11.08
2022-12-23T23:41:26.108Z,10.99
2022-12-23T23:43:52.384Z,11.06
2022-12-23T23:46:18.792Z,11.17
2022-12-23T23:48:45.191Z,11.18
2022-12-23T23:51:12.439Z,11.12
2022-12-23T23:53:38.779Z,11.11
2022-12-23T23:56:05.462Z,11.17
2022-12-23T23:58:31.884Z,11.20
